Deerfield Twp, New Jersey
Current Conditions -  °F | °C
As of 9:54 AM on Friday 24 Oct 2014 (Local Time) from KMIV Reporting Station
Overcast Overcast  
Wind Chill: 59°   Ceiling: 3600
Heat Index: 59°   Visibility: 10mi
Dew Point: 46°   Wind: 10mph
Humidity: 62%   Direction: 320°NW
Pressure: 29.88"   Gusts: 23mph
Location:  39.4433°N, 75.2554°W
Report Text: KMIV 241354Z AUTO 32009G20KT 10SM OVC036 15/08 A2988 RMK AO2 SLP117 T01500078
Loading
Personal Weather Stations






























Interactive Weather Map
Tropical Storm Tracking
New forecast layout! Learn more

10-Day Weather Forecast

Advertisements
Track Severe Weather on mobile